Time;durP1;ratioP1;P1;durP2;ratioP2;P2;SDS_P1;SDS_P2;PMS_P1;PMS_P2;Temp;Humidity;BMP_temperature;BMP_pressure;BME280_temperature;BME280_humidity;BME280_pressure;Samples;Min_cycle;Max_cycle;Signal;HPM_P1;HPM_P2
2023/02/13 00:02:13;;;;;;;116.55;47.05;;;;;;;3.24;76.33;100496.41;4970808;28;20490;-77
2023/02/13 00:04:38;;;;;;;121.80;48.05;;;;;;;3.22;75.75;100492.22;4970604;28;20027;-77
2023/02/13 00:07:03;;;;;;;128.18;52.08;;;;;;;3.20;76.01;100486.16;4971011;28;20478;-80
2023/02/13 00:09:29;;;;;;;135.35;54.58;;;;;;;3.17;75.71;100498.22;4971027;28;20056;-79
2023/02/13 00:11:54;;;;;;;140.35;56.55;;;;;;;3.18;76.70;100491.75;4971035;28;20031;-80
2023/02/13 00:14:20;;;;;;;147.40;57.63;;;;;;;3.16;76.14;100499.25;4970702;28;20033;-79
2023/02/13 00:16:45;;;;;;;149.43;59.92;;;;;;;3.13;75.95;100491.50;4971196;28;20026;-79
2023/02/13 00:19:10;;;;;;;139.98;58.38;;;;;;;3.14;76.52;100504.03;4971042;28;20027;-79
2023/02/13 00:21:36;;;;;;;143.52;56.17;;;;;;;3.13;76.14;100496.94;4971044;28;20030;-79
2023/02/13 00:24:01;;;;;;;138.05;56.67;;;;;;;3.11;75.77;100493.59;4970252;28;20376;-79
2023/02/13 00:26:26;;;;;;;130.57;54.35;;;;;;;3.10;75.98;100500.03;4971164;28;20034;-79
2023/02/13 00:28:52;;;;;;;139.77;55.25;;;;;;;3.06;76.67;100501.47;4969778;28;20023;-79
2023/02/13 00:31:20;;;;;;;138.95;55.55;;;;;;;3.06;76.23;100493.31;4970739;28;20480;-79
2023/02/13 00:33:45;;;;;;;125.05;51.22;;;;;;;3.04;75.92;100495.44;4969846;28;20023;-79
2023/02/13 00:36:12;;;;;;;127.90;51.25;;;;;;;3.05;76.09;100497.09;4970551;28;20086;-80
2023/02/13 00:38:39;;;;;;;128.43;52.75;;;;;;;3.05;76.27;100495.22;4970728;28;20037;-78
2023/02/13 00:41:05;;;;;;;117.22;49.78;;;;;;;3.05;75.79;100495.22;4970567;28;20027;-79
2023/02/13 00:43:31;;;;;;;120.60;50.05;;;;;;;3.06;75.95;100496.03;4970554;28;20031;-79
2023/02/13 00:46:00;;;;;;;124.20;47.97;;;;;;;3.06;76.61;100493.31;4970048;28;20023;-80
2023/02/13 00:48:28;;;;;;;115.38;46.28;;;;;;;3.07;76.61;100489.59;4969030;28;20026;-79
2023/02/13 00:50:54;;;;;;;114.63;46.00;;;;;;;3.08;76.36;100483.97;4970711;28;20050;-78
2023/02/13 00:53:20;;;;;;;100.60;43.97;;;;;;;3.08;76.17;100486.69;4970654;28;20490;-79
2023/02/13 00:55:47;;;;;;;106.47;43.40;;;;;;;3.08;76.90;100485.84;4969061;28;20404;-79
2023/02/13 00:58:12;;;;;;;106.93;43.38;;;;;;;3.08;76.50;100480.41;4967658;28;20054;-79
2023/02/13 01:00:38;;;;;;;107.90;44.60;;;;;;;3.10;76.00;100489.19;4970555;28;20060;-78
2023/02/13 01:03:04;;;;;;;102.25;41.75;;;;;;;3.09;76.42;100473.97;4970200;28;20023;-79
2023/02/13 01:05:29;;;;;;;150.73;54.08;;;;;;;3.07;76.43;100474.16;4969615;28;20023;-78
2023/02/13 01:07:55;;;;;;;121.28;49.80;;;;;;;3.06;76.36;100479.78;4970296;28;20033;-78
2023/02/13 01:10:20;;;;;;;101.07;42.95;;;;;;;3.04;76.31;100480.00;4970280;28;20182;-79
2023/02/13 01:12:46;;;;;;;106.53;46.28;;;;;;;3.01;76.54;100479.56;4970541;28;20384;-79
2023/02/13 01:15:11;;;;;;;95.80;40.20;;;;;;;3.02;76.08;100489.38;4970942;28;20025;-79
2023/02/13 01:17:38;;;;;;;93.75;39.50;;;;;;;3.00;77.03;100488.72;4970929;28;20065;-78
2023/02/13 01:20:06;;;;;;;85.90;35.45;;;;;;;2.98;76.20;100484.34;4967867;28;20023;-78
2023/02/13 01:22:31;;;;;;;88.63;38.72;;;;;;;2.97;77.22;100474.53;4970208;28;20046;-78
2023/02/13 01:24:57;;;;;;;86.40;36.75;;;;;;;2.97;76.30;100479.09;4969814;28;20098;-79
2023/02/13 01:27:23;;;;;;;80.43;35.35;;;;;;;2.97;76.43;100477.22;4970424;28;20031;-78
2023/02/13 01:29:49;;;;;;;80.07;36.30;;;;;;;2.98;76.92;100481.63;4970602;28;20035;-78
2023/02/13 01:32:14;;;;;;;82.65;35.25;;;;;;;2.98;76.60;100476.19;4970483;28;20472;-78
2023/02/13 01:34:39;;;;;;;80.88;34.67;;;;;;;2.98;76.55;100470.78;4970361;28;21399;-78
2023/02/13 01:37:05;;;;;;;67.80;32.95;;;;;;;3.00;77.30;100475.16;4970487;28;20030;-78
2023/02/13 01:39:30;;;;;;;70.53;31.92;;;;;;;3.02;76.57;100479.34;4970953;28;20027;-77
2023/02/13 01:41:56;;;;;;;79.18;34.60;;;;;;;3.01;77.53;100472.25;4969430;28;20023;-76
2023/02/13 01:44:44;;;;;;;71.07;32.50;;;;;;;3.00;77.73;100469.75;4969653;28;20027;-77
2023/02/13 01:47:12;;;;;;;71.22;31.35;;;;;;;3.00;76.99;100458.91;4969190;28;20023;-76
2023/02/13 01:49:40;;;;;;;68.60;32.05;;;;;;;3.02;77.03;100467.69;4968905;28;20026;-77
2023/02/13 01:52:08;;;;;;;75.03;33.47;;;;;;;2.98;77.08;100449.09;4969890;28;20081;-77
2023/02/13 01:54:34;;;;;;;70.53;32.55;;;;;;;3.01;77.05;100457.88;4969594;28;20034;-78
2023/02/13 01:57:04;;;;;;;73.22;31.23;;;;;;;3.00;77.21;100453.47;4972826;28;20026;-77
2023/02/13 01:59:40;;;;;;;74.55;34.10;;;;;;;2.98;77.71;100450.94;4974083;28;20026;-77
2023/02/13 02:02:06;;;;;;;77.85;34.28;;;;;;;3.00;77.00;100451.59;4972120;28;20189;-77
2023/02/13 02:04:34;;;;;;;73.60;33.80;;;;;;;3.01;76.81;100447.03;4973395;28;20531;-77
2023/02/13 02:07:22;;;;;;;74.38;33.25;;;;;;;3.00;77.78;100448.88;4973764;28;20038;-77
2023/02/13 02:09:48;;;;;;;74.95;32.72;;;;;;;3.00;77.36;100440.75;4972390;28;20023;-78
2023/02/13 02:12:25;;;;;;;75.32;32.95;;;;;;;3.00;77.43;100446.16;4971942;28;20019;-77
2023/02/13 02:14:53;;;;;;;70.25;31.63;;;;;;;2.99;77.39;100436.38;4972966;28;20115;-77
2023/02/13 02:17:20;;;;;;;68.45;30.05;;;;;;;2.99;77.47;100441.78;4973487;28;20106;-77
2023/02/13 02:20:13;;;;;;;73.57;32.88;;;;;;;2.98;77.09;100435.53;4973614;28;20038;-77
2023/02/13 02:22:58;;;;;;;70.05;32.03;;;;;;;3.00;77.05;100437.22;4968963;28;20097;-77
2023/02/13 02:25:51;;;;;;;66.00;29.88;;;;;;;2.97;77.48;100431.16;4973017;28;20039;-77
2023/02/13 02:28:44;;;;;;;61.95;28.25;;;;;;;2.97;77.54;100430.28;4973493;28;20038;-77
2023/02/13 02:31:23;;;;;;;68.65;29.42;;;;;;;2.96;77.04;100431.34;4973280;28;20034;-77
2023/02/13 02:34:12;;;;;;;60.30;27.20;;;;;;;2.94;77.48;100430.69;4973020;28;20045;-77
2023/02/13 02:37:17;;;;;;;58.10;26.77;;;;;;;2.91;77.65;100428.38;4972818;28;20019;-77
2023/02/13 02:39:52;;;;;;;50.95;23.25;;;;;;;2.91;77.94;100433.78;4973162;28;20054;-77
2023/02/13 02:42:17;;;;;;;49.10;24.25;;;;;;;2.90;77.35;100435.69;4973106;28;20091;-77
2023/02/13 02:45:10;;;;;;;50.25;23.33;;;;;;;2.89;77.41;100434.00;4972854;28;20070;-77
2023/02/13 02:51:18;;;;;;;49.92;22.95;;;;;;;2.90;77.58;100438.38;4972521;28;20133;-77
2023/02/13 02:55:05;;;;;;;53.22;24.02;;;;;;;2.92;77.51;100439.03;4975345;28;20046;-76
2023/02/13 02:56:53;;;;;;;58.53;24.67;;;;;;;2.94;78.12;100427.97;4970887;28;20060;-76
2023/02/13 03:07:37;;;;;;;46.28;20.58;;;;;;;2.95;78.19;100432.38;4971471;28;20069;-77
2023/02/13 03:24:38;;;;;;;;;;;;;;;3.07;78.28;100438.94;4972000;28;20045;-77
2023/02/13 03:27:07;;;;;;;45.78;21.05;;;;;;;3.06;78.73;100437.25;4971546;28;19953;-76
2023/02/13 03:32:40;;;;;;;45.25;21.33;;;;;;;3.07;78.44;100443.50;4971662;28;20053;-77
2023/02/13 03:38:23;;;;;;;42.28;20.45;;;;;;;3.09;77.92;100439.56;4972135;28;20552;-76
2023/02/13 03:43:50;;;;;;;42.95;21.30;;;;;;;3.13;78.41;100448.13;4971941;28;20442;-77
2023/02/13 03:46:18;;;;;;;43.33;20.98;;;;;;;3.18;78.40;100447.56;4971948;28;20027;-76
2023/02/13 03:51:42;;;;;;;42.42;19.77;;;;;;;3.20;78.41;100446.31;4971622;28;20185;-77
2023/02/13 03:54:19;;;;;;;41.20;18.77;;;;;;;3.20;78.12;100434.63;4971852;28;20039;-76
2023/02/13 03:59:35;;;;;;;36.10;17.38;;;;;;;3.23;78.48;100435.06;4971489;28;20050;-77
2023/02/13 04:02:15;;;;;;;38.65;19.15;;;;;;;3.24;78.16;100434.03;4971299;28;20089;-76
2023/02/13 04:04:49;;;;;;;40.35;19.45;;;;;;;3.25;78.75;100438.41;4970944;28;20041;-77
2023/02/13 04:07:30;;;;;;;37.55;19.58;;;;;;;3.27;78.24;100444.47;4971551;28;20030;-76
2023/02/13 04:10:04;;;;;;;39.50;17.73;;;;;;;3.28;78.90;100435.31;4969217;28;20099;-76
2023/02/13 04:13:07;;;;;;;48.80;20.67;;;;;;;3.25;78.20;100430.28;4971487;28;20050;-77
2023/02/13 04:15:37;;;;;;;57.38;23.75;;;;;;;3.26;78.90;100425.72;4971272;28;20027;-77
2023/02/13 04:18:18;;;;;;;43.30;19.83;;;;;;;3.24;78.54;100423.19;4969921;28;20054;-77
2023/02/13 04:20:43;;;;;;;43.65;20.38;;;;;;;3.25;78.51;100426.75;4970461;28;20391;-77
2023/02/13 04:23:11;;;;;;;61.28;25.80;;;;;;;3.23;78.60;100432.34;4970983;28;20030;-77
2023/02/13 04:25:39;;;;;;;62.85;26.88;;;;;;;3.22;79.10;100443.41;4970866;28;20026;-76
2023/02/13 04:28:04;;;;;;;48.80;23.38;;;;;;;3.21;78.28;100430.88;4970516;28;20081;-77
2023/02/13 04:30:30;;;;;;;36.72;17.52;;;;;;;3.20;78.59;100424.63;4971296;28;20034;-76
2023/02/13 04:32:55;;;;;;;40.72;20.63;;;;;;;3.17;78.74;100435.84;4971231;28;20065;-77
2023/02/13 04:35:21;;;;;;;42.13;19.52;;;;;;;3.18;78.84;100421.25;4969331;28;20499;-77
2023/02/13 04:37:46;;;;;;;37.10;17.70;;;;;;;3.15;78.83;100427.09;4969690;28;20039;-77
2023/02/13 04:40:12;;;;;;;40.33;20.33;;;;;;;3.17;78.30;100427.72;4970907;28;20038;-77
2023/02/13 04:42:37;;;;;;;43.58;22.58;;;;;;;3.19;78.39;100425.66;4971305;28;20066;-77
2023/02/13 04:45:03;;;;;;;53.28;24.27;;;;;;;3.19;78.54;100430.25;4970569;28;20050;-77
2023/02/13 04:47:28;;;;;;;46.75;23.23;;;;;;;3.20;78.85;100426.50;4969908;28;20038;-76
2023/02/13 04:49:54;;;;;;;46.38;22.00;;;;;;;3.20;78.55;100432.75;4970821;28;20047;-77
2023/02/13 04:52:19;;;;;;;36.00;17.92;;;;;;;3.20;78.53;100431.94;4970893;28;20484;-77
2023/02/13 04:54:44;;;;;;;32.72;16.63;;;;;;;3.20;78.87;100432.75;4969414;28;20023;-77
2023/02/13 04:57:14;;;;;;;33.72;17.70;;;;;;;3.17;78.42;100429.63;4971371;28;20049;-77
2023/02/13 04:59:39;;;;;;;32.97;17.52;;;;;;;3.20;79.08;100430.03;4971344;28;20034;-76
2023/02/13 05:02:05;;;;;;;28.65;15.38;;;;;;;3.21;78.86;100431.72;4971744;28;20034;-76
2023/02/13 05:04:30;;;;;;;26.92;14.68;;;;;;;3.21;79.25;100428.19;4970215;28;20098;-77
2023/02/13 05:06:56;;;;;;;30.58;15.18;;;;;;;3.25;78.94;100421.31;4971191;28;20045;-76
2023/02/13 05:09:21;;;;;;;30.58;15.52;;;;;;;3.27;79.00;100421.94;4971034;28;20066;-77
2023/02/13 05:11:50;;;;;;;26.98;15.05;;;;;;;3.26;78.80;100421.09;4971044;28;20383;-77
2023/02/13 05:14:15;;;;;;;31.40;16.10;;;;;;;3.26;78.95;100423.81;4970956;28;20037;-77
2023/02/13 05:16:40;;;;;;;36.08;17.75;;;;;;;3.29;79.27;100422.56;4971209;28;20026;-77
2023/02/13 05:19:06;;;;;;;34.55;18.50;;;;;;;3.29;78.82;100422.56;4970265;28;20035;-76
2023/02/13 05:24:15;;;;;;;28.63;14.18;;;;;;;3.25;78.63;100416.72;4970404;28;20097;-77
2023/02/13 05:26:40;;;;;;;25.73;14.18;;;;;;;3.22;78.28;100425.25;4971278;28;20030;-78
2023/02/13 05:29:21;;;;;;;29.83;15.55;;;;;;;3.23;78.22;100428.81;4970747;28;20105;-76
2023/02/13 05:31:57;;;;;;;30.55;15.68;;;;;;;3.21;78.30;100429.00;4973702;28;20034;-78
2023/02/13 05:34:24;;;;;;;29.83;16.02;;;;;;;3.20;78.15;100435.47;4973783;28;20806;-77
2023/02/13 05:36:50;;;;;;;32.47;16.00;;;;;;;3.19;78.31;100417.50;4974550;28;20546;-78
2023/02/13 05:39:15;;;;;;;31.00;15.40;;;;;;;3.15;78.40;100410.81;4974175;28;20121;-77
2023/02/13 05:41:42;;;;;;;30.63;15.20;;;;;;;3.14;77.81;100414.56;4973531;28;20038;-78
2023/02/13 05:44:07;;;;;;;29.92;14.27;;;;;;;3.12;78.42;100414.78;4973832;28;20034;-78
2023/02/13 05:46:33;;;;;;;26.63;13.77;;;;;;;3.10;78.38;100419.56;4973612;28;20602;-78
2023/02/13 05:48:58;;;;;;;31.35;15.27;;;;;;;3.09;78.45;100426.00;4974105;28;20530;-78
2023/02/13 05:51:24;;;;;;;39.72;22.02;;;;;;;3.10;78.34;100424.97;4974033;28;20057;-76
2023/02/13 05:53:51;;;;;;;44.90;25.20;;;;;;;3.12;78.53;100424.75;4972621;28;20051;-77
2023/02/13 05:56:17;;;;;;;42.03;22.98;;;;;;;3.12;78.58;100422.91;4974300;28;20101;-77
2023/02/13 05:58:43;;;;;;;39.60;19.77;;;;;;;3.09;78.28;100420.59;4973019;28;20480;-77
2023/02/13 06:01:09;;;;;;;24.67;13.93;;;;;;;3.10;78.32;100416.84;4972829;28;20030;-78
2023/02/13 06:03:35;;;;;;;25.55;12.60;;;;;;;3.11;78.00;100423.09;4973138;28;20214;-78
2023/02/13 06:06:01;;;;;;;23.85;11.95;;;;;;;3.09;78.57;100423.31;4973965;28;22091;-77
2023/02/13 06:08:26;;;;;;;29.60;15.50;;;;;;;3.08;77.92;100426.19;4974060;28;20531;-77
2023/02/13 06:10:51;;;;;;;31.58;16.80;;;;;;;3.08;78.68;100440.59;4972161;28;20038;-77
2023/02/13 06:13:17;;;;;;;28.80;15.40;;;;;;;3.06;78.74;100433.69;4973306;28;20041;-77
2023/02/13 06:15:43;;;;;;;31.73;15.48;;;;;;;3.06;78.05;100433.69;4973328;28;20015;-77
2023/02/13 06:18:09;;;;;;;26.02;14.63;;;;;;;3.03;78.62;100439.53;4973656;28;20487;-78
2023/02/13 06:20:35;;;;;;;25.52;12.68;;;;;;;3.03;78.65;100442.25;4972977;28;20042;-77
2023/02/13 06:23:00;;;;;;;24.98;14.05;;;;;;;3.02;78.43;100440.56;4973503;28;20027;-77
2023/02/13 06:25:26;;;;;;;26.67;13.35;;;;;;;3.02;78.33;100438.69;4972871;28;20035;-78
2023/02/13 06:27:52;;;;;;;26.65;15.63;;;;;;;3.02;78.20;100433.25;4973586;28;20041;-77
2023/02/13 06:30:18;;;;;;;33.28;16.48;;;;;;;3.02;78.35;100435.97;4973130;28;20039;-77
2023/02/13 06:32:46;;;;;;;29.25;15.55;;;;;;;3.02;79.02;100432.44;4973815;28;20469;-77
2023/02/13 06:35:11;;;;;;;29.25;14.63;;;;;;;2.97;78.73;100433.88;4972663;28;20467;-77
2023/02/13 06:37:38;;;;;;;25.80;12.90;;;;;;;2.94;78.17;100442.38;4973883;28;20093;-77
2023/02/13 06:40:05;;;;;;;29.45;15.15;;;;;;;2.93;78.49;100442.56;4972272;28;20078;-78
2023/02/13 06:42:30;;;;;;;33.70;17.17;;;;;;;2.90;78.37;100432.97;4970829;28;20392;-77
2023/02/13 06:44:55;;;;;;;34.97;16.63;;;;;;;2.93;78.39;100440.72;4972793;28;20082;-78
2023/02/13 06:47:21;;;;;;;36.65;17.65;;;;;;;2.95;78.57;100437.78;4971880;28;20126;-78
2023/02/13 06:49:46;;;;;;;36.88;17.83;;;;;;;3.00;78.07;100442.63;4972560;28;20019;-76
2023/02/13 06:52:11;;;;;;;37.35;17.92;;;;;;;3.04;78.50;100439.31;4972621;28;20039;-77
2023/02/13 06:54:37;;;;;;;40.42;18.25;;;;;;;3.08;78.01;100447.88;4973009;28;20495;-76
2023/02/13 06:57:02;;;;;;;38.65;18.98;;;;;;;3.11;78.31;100445.63;4972926;28;20015;-76
2023/02/13 06:59:28;;;;;;;40.58;20.17;;;;;;;3.13;78.73;100448.97;4971958;28;20384;-76
2023/02/13 07:01:53;;;;;;;39.15;19.58;;;;;;;3.16;78.08;100447.75;4971642;28;20011;-77
2023/02/13 07:04:18;;;;;;;43.28;20.23;;;;;;;3.21;78.34;100449.88;4972182;28;20026;-76
2023/02/13 07:06:45;;;;;;;39.83;19.23;;;;;;;3.23;78.62;100447.81;4972061;28;20030;-77
2023/02/13 07:09:12;;;;;;;33.47;16.63;;;;;;;3.24;78.10;100447.59;4970640;28;20053;-79
2023/02/13 07:11:38;;;;;;;30.95;15.32;;;;;;;3.26;78.12;100442.81;4972593;28;20035;-76
2023/02/13 07:14:06;;;;;;;31.45;15.30;;;;;;;3.28;78.34;100445.31;4970676;28;20038;-79
2023/02/13 07:16:32;;;;;;;29.45;14.02;;;;;;;3.33;78.71;100442.00;4973109;28;20113;-79
2023/02/13 07:18:57;;;;;;;30.15;15.40;;;;;;;3.39;78.28;100444.75;4970404;28;20059;-77
2023/02/13 07:21:22;;;;;;;36.25;16.08;;;;;;;3.47;78.74;100443.75;4971631;28;20038;-78
2023/02/13 07:23:48;;;;;;;34.63;17.20;;;;;;;3.55;78.20;100442.75;4969445;28;20038;-78
2023/02/13 07:26:15;;;;;;;55.92;22.70;;;;;;;3.63;78.15;100441.75;4972422;28;20364;-76
2023/02/13 07:28:40;;;;;;;55.60;22.83;;;;;;;3.71;78.67;100441.59;4971841;28;20030;-77
2023/02/13 07:31:06;;;;;;;53.83;21.60;;;;;;;3.77;78.70;100446.22;4971596;28;20108;-75
2023/02/13 07:33:35;;;;;;;44.00;21.85;;;;;;;3.85;78.13;100445.19;4971825;28;21804;-76
2023/02/13 07:36:02;;;;;;;44.40;20.15;;;;;;;3.91;78.16;100443.53;4971861;28;20081;-76
2023/02/13 07:38:28;;;;;;;42.60;20.50;;;;;;;3.96;78.30;100452.75;4972426;28;20058;-78
2023/02/13 07:40:54;;;;;;;38.97;18.65;;;;;;;3.99;78.45;100446.91;4972368;28;20058;-78
2023/02/13 07:43:19;;;;;;;41.08;21.77;;;;;;;4.02;78.63;100442.94;4972837;28;20034;-78
2023/02/13 07:45:45;;;;;;;44.88;22.88;;;;;;;4.06;78.33;100454.25;4972346;28;20062;-78
2023/02/13 07:48:11;;;;;;;38.50;22.15;;;;;;;4.08;78.07;100455.72;4968695;28;20023;-78
2023/02/13 07:50:36;;;;;;;59.38;26.83;;;;;;;4.10;77.89;100450.06;4969350;28;20047;-75
2023/02/13 07:53:01;;;;;;;95.07;35.78;;;;;;;4.15;78.77;100451.13;4965075;28;20464;-78
2023/02/13 07:55:28;;;;;;;80.68;31.35;;;;;;;4.21;78.88;100457.63;4969688;28;20027;-79
2023/02/13 07:57:54;;;;;;;55.08;25.00;;;;;;;4.26;78.46;100451.59;4969339;28;20117;-79
2023/02/13 08:00:20;;;;;;;43.72;20.95;;;;;;;4.30;77.83;100447.41;4970411;28;20379;-76
2023/02/13 08:02:46;;;;;;;45.92;23.38;;;;;;;4.35;78.15;100438.66;4970607;28;20571;-75
2023/02/13 08:05:12;;;;;;;42.25;22.75;;;;;;;4.38;78.52;100443.66;4970493;28;20737;-75
2023/02/13 08:07:37;;;;;;;44.70;23.38;;;;;;;4.42;77.97;100444.94;4969839;28;20027;-75
2023/02/13 08:12:50;;;;;;;43.78;23.35;;;;;;;4.48;77.91;100446.81;4969977;28;20034;-75
2023/02/13 08:15:15;;;;;;;39.80;20.55;;;;;;;4.52;78.14;100448.06;4969860;28;20383;-75
2023/02/13 08:17:41;;;;;;;41.00;20.45;;;;;;;4.54;77.85;100445.97;4970923;28;20033;-75
2023/02/13 08:20:07;;;;;;;40.72;20.95;;;;;;;4.57;78.02;100447.47;4969954;28;20034;-75
2023/02/13 08:22:33;;;;;;;40.25;22.38;;;;;;;4.60;78.19;100447.03;4969764;28;20415;-75
2023/02/13 08:24:58;;;;;;;37.83;20.23;;;;;;;4.64;77.83;100452.88;4969250;28;20085;-75
2023/02/13 08:27:24;;;;;;;47.45;23.83;;;;;;;4.68;77.88;100446.00;4970951;28;20035;-74
2023/02/13 08:29:50;;;;;;;42.13;21.80;;;;;;;4.70;78.30;100452.88;4971304;28;20147;-75
2023/02/13 08:32:16;;;;;;;39.92;20.85;;;;;;;4.71;77.42;100453.75;4971225;28;20137;-75
2023/02/13 08:34:41;;;;;;;41.10;20.92;;;;;;;4.73;77.73;100441.59;4968692;28;20027;-75
2023/02/13 08:37:07;;;;;;;47.28;25.90;;;;;;;4.79;77.66;100431.78;4971114;28;20093;-75
2023/02/13 08:39:32;;;;;;;46.95;25.25;;;;;;;4.86;77.67;100437.22;4973406;28;20033;-75
2023/02/13 08:41:59;;;;;;;51.95;27.55;;;;;;;4.92;78.24;100447.25;4954197;28;20033;-75
2023/02/13 08:44:28;;;;;;;45.50;24.40;;;;;;;4.96;77.91;100450.38;4971204;28;20031;-75
2023/02/13 08:46:55;;;;;;;56.40;27.23;;;;;;;5.03;77.88;100449.34;4971133;28;20023;-75
2023/02/13 08:49:22;;;;;;;53.22;25.83;;;;;;;5.08;77.70;100448.72;4973169;28;20030;-75
2023/02/13 08:51:53;;;;;;;56.03;26.98;;;;;;;5.13;77.81;100451.63;4969652;28;20117;-75
2023/02/13 08:54:19;;;;;;;50.00;23.55;;;;;;;5.14;77.57;100450.59;4968976;28;20380;-75
2023/02/13 08:56:44;;;;;;;50.25;24.67;;;;;;;5.16;77.58;100455.81;4969656;28;20058;-75
2023/02/13 08:59:09;;;;;;;49.75;25.08;;;;;;;5.17;78.10;100452.88;4969149;28;20069;-75
2023/02/13 09:01:35;;;;;;;50.58;24.83;;;;;;;5.19;77.60;100453.50;4970092;28;20085;-75
2023/02/13 09:04:00;;;;;;;50.05;25.35;;;;;;;5.20;77.56;100443.44;4964219;28;20595;-75
2023/02/13 09:06:26;;;;;;;58.40;29.08;;;;;;;5.20;77.82;100435.28;4969204;28;20031;-75
2023/02/13 09:08:52;;;;;;;58.78;28.88;;;;;;;5.23;77.35;100448.47;4968179;28;20050;-74
2023/02/13 09:11:18;;;;;;;54.22;27.52;;;;;;;5.24;77.67;100444.69;4965413;28;20038;-74
2023/02/13 09:13:44;;;;;;;56.10;27.23;;;;;;;5.24;77.45;100446.59;4969961;28;20027;-74
2023/02/13 09:16:10;;;;;;;51.53;25.52;;;;;;;5.28;77.80;100454.13;4969541;28;20085;-75
2023/02/13 09:18:35;;;;;;;46.50;25.75;;;;;;;5.31;77.67;100456.41;4969418;28;20029;-74
2023/02/13 09:21:09;;;;;;;49.63;25.00;;;;;;;5.35;77.65;100459.53;4969775;28;20019;-74
2023/02/13 09:23:37;;;;;;;53.03;26.95;;;;;;;5.40;77.59;100461.63;4969690;28;20468;-75
2023/02/13 09:26:05;;;;;;;55.30;27.58;;;;;;;5.43;77.39;100455.78;4969824;28;20038;-76
2023/02/13 09:28:32;;;;;;;55.22;29.88;;;;;;;5.45;77.36;100456.41;4969772;28;20030;-75
2023/02/13 09:30:58;;;;;;;60.03;30.17;;;;;;;5.43;77.78;100451.16;4969452;28;20498;-76
2023/02/13 09:33:24;;;;;;;62.20;30.40;;;;;;;5.44;77.72;100454.72;4969045;28;20035;-75
2023/02/13 09:35:50;;;;;;;56.22;27.75;;;;;;;5.45;77.84;100459.13;4968616;28;20027;-75
2023/02/13 09:38:15;;;;;;;65.65;31.15;;;;;;;5.43;77.66;100459.31;4969825;28;20033;-75
2023/02/13 09:40:50;;;;;;;59.35;30.65;;;;;;;5.44;77.43;100463.72;4968993;28;20037;-76
2023/02/13 09:43:26;;;;;;;64.15;31.20;;;;;;;5.47;77.61;100466.00;4968725;28;20051;-79
2023/02/13 09:45:57;;;;;;;58.72;27.63;;;;;;;5.47;77.79;100463.28;4967128;28;20037;-80
2023/02/13 09:48:33;;;;;;;46.53;24.45;;;;;;;5.49;77.55;100455.75;4968758;28;20031;-80
2023/02/13 09:50:59;;;;;;;38.78;21.05;;;;;;;5.50;77.77;100459.31;4966999;28;20056;-81
2023/02/13 09:53:28;;;;;;;37.10;18.80;;;;;;;5.49;77.73;100460.38;4969459;28;20035;-80
2023/02/13 09:56:03;;;;;;;38.53;19.90;;;;;;;5.49;77.14;100454.94;4968763;28;20562;-80
2023/02/13 09:58:46;;;;;;;40.38;20.63;;;;;;;5.49;77.80;100449.47;4969030;28;20038;-78
2023/02/13 10:01:24;;;;;;;42.55;21.58;;;;;;;5.50;77.52;100456.59;4968639;28;20089;-78
2023/02/13 10:04:15;;;;;;;38.40;18.05;;;;;;;5.49;77.64;100450.31;4967804;28;20100;-77
2023/02/13 10:06:48;;;;;;;31.80;16.75;;;;;;;5.48;77.58;100458.69;4968652;28;20043;-79
2023/02/13 10:09:57;;;;;;;41.13;19.10;;;;;;;5.48;77.53;100451.34;4969576;28;20126;-80
2023/02/13 10:12:40;;;;;;;32.20;16.10;;;;;;;5.47;77.59;100449.69;4964779;28;20057;-83
2023/02/13 10:15:20;;;;;;;26.27;14.32;;;;;;;5.42;77.92;100449.47;4967540;28;20046;-81
2023/02/13 10:18:15;;;;;;;24.58;13.05;;;;;;;5.38;77.97;100447.41;4969103;28;20026;-79
2023/02/13 10:20:46;;;;;;;28.27;15.63;;;;;;;5.37;77.50;100452.00;4972043;28;20495;-80
2023/02/13 10:23:43;;;;;;;26.50;14.98;;;;;;;5.39;77.72;100443.63;4971497;28;20492;-79
2023/02/13 10:26:44;;;;;;;23.75;13.00;;;;;;;5.45;77.82;100437.34;4971111;28;20387;-79
2023/02/13 10:32:24;;;;;;;26.55;13.20;;;;;;;5.54;77.62;100432.50;4973121;28;20466;-79
2023/02/13 10:34:52;;;;;;;25.17;13.80;;;;;;;5.53;77.59;100419.94;4972318;28;20462;-79
2023/02/13 10:37:20;;;;;;;21.60;12.55;;;;;;;5.55;77.81;100413.22;4973237;28;20069;-79
2023/02/13 10:39:54;;;;;;;21.30;11.57;;;;;;;5.57;78.09;100411.13;4971979;28;20117;-82
2023/02/13 10:42:36;;;;;;;18.98;10.40;;;;;;;5.59;77.91;100411.75;4970114;28;20447;-78
2023/02/13 10:45:17;;;;;;;17.83;9.43;;;;;;;5.63;78.33;100410.25;4969981;28;20046;-79
2023/02/13 10:47:58;;;;;;;18.33;11.02;;;;;;;5.69;78.05;100399.56;4983799;28;20037;-81
2023/02/13 10:50:48;;;;;;;17.90;10.05;;;;;;;5.73;78.25;100396.19;4969123;28;20058;-80
2023/02/13 10:53:18;;;;;;;;;;;;;;;5.78;78.56;100392.81;4972770;28;20045;-76
2023/02/13 10:55:58;;;;;;;20.33;11.27;;;;;;;5.84;78.03;100391.97;4973529;28;20386;-78
2023/02/13 10:58:29;;;;;;;20.85;12.07;;;;;;;5.93;78.21;100384.38;4971578;28;20042;-76
2023/02/13 11:01:01;;;;;;;21.17;11.00;;;;;;;6.01;78.39;100380.56;4970856;28;20571;-75
2023/02/13 11:03:29;;;;;;;18.48;10.80;;;;;;;6.01;78.54;100375.97;4969762;28;20042;-76
2023/02/13 11:05:57;;;;;;;20.60;11.60;;;;;;;6.06;78.33;100368.00;4970774;28;20109;-76
2023/02/13 11:08:37;;;;;;;17.33;10.25;;;;;;;6.13;78.38;100367.94;4970770;28;20089;-75
2023/02/13 11:11:02;;;;;;;19.05;10.68;;;;;;;6.18;78.41;100372.72;4968717;28;20031;-75
2023/02/13 11:13:29;;;;;;;20.17;11.95;;;;;;;6.20;78.57;100371.47;4969791;28;20026;-75
2023/02/13 11:16:06;;;;;;;23.00;12.98;;;;;;;6.24;78.69;100375.41;4968906;28;20031;-75
2023/02/13 11:18:40;;;;;;;17.35;9.88;;;;;;;6.28;78.24;100373.06;4969064;28;20105;-75
2023/02/13 11:21:12;;;;;;;17.60;10.57;;;;;;;6.26;78.29;100375.19;4970270;28;20038;-78
2023/02/13 11:23:42;;;;;;;19.60;11.70;;;;;;;6.22;78.11;100374.78;4970603;28;20027;-77
2023/02/13 11:26:13;;;;;;;21.15;11.65;;;;;;;6.22;77.79;100379.41;4971352;28;20043;-77
2023/02/13 11:28:47;;;;;;;23.88;12.95;;;;;;;6.22;78.25;100366.63;4970603;28;20062;-80
2023/02/13 11:31:25;;;;;;;22.65;12.10;;;;;;;6.21;78.40;100373.13;4983988;28;20043;-81
2023/02/13 11:33:51;;;;;;;17.98;10.75;;;;;;;6.20;77.79;100368.72;4969601;28;20030;-76
2023/02/13 11:36:23;;;;;;;18.13;10.77;;;;;;;6.17;78.44;100369.16;4971245;28;20027;-80
2023/02/13 11:38:58;;;;;;;23.35;11.98;;;;;;;6.14;78.26;100366.88;4971651;28;20026;-76
2023/02/13 11:41:24;;;;;;;18.88;10.23;;;;;;;6.12;78.21;100371.72;4968631;28;20031;-77
2023/02/13 11:43:59;;;;;;;21.23;11.85;;;;;;;6.09;78.26;100362.09;4968389;28;20034;-78
2023/02/13 11:46:28;;;;;;;19.17;9.75;;;;;;;6.09;78.22;100359.38;4970107;28;20376;-74
2023/02/13 11:49:01;;;;;;;21.13;11.13;;;;;;;6.07;78.18;100357.91;4969631;28;20387;-74
2023/02/13 11:51:41;;;;;;;21.10;11.73;;;;;;;6.06;77.80;100357.09;4966600;28;20046;-78
2023/02/13 11:54:21;;;;;;;;;;;;;;;6.04;77.82;100361.91;4970383;28;20043;-80
2023/02/13 11:56:49;;;;;;;25.42;13.27;;;;;;;6.01;78.38;100356.06;4970840;28;19914;-81
2023/02/13 11:59:15;;;;;;;20.80;12.15;;;;;;;5.93;78.02;100352.50;4970089;28;20031;-81
2023/02/13 12:01:41;;;;;;;18.65;10.68;;;;;;;5.92;78.33;100350.03;4969030;28;20045;-77
2023/02/13 12:04:16;;;;;;;30.70;14.25;;;;;;;5.92;78.44;100350.03;4969373;28;20099;-76
2023/02/13 12:07:14;;;;;;;46.60;20.13;;;;;;;5.87;77.87;100347.97;4970857;28;20049;-78
2023/02/13 12:09:40;;;;;;;47.88;19.58;;;;;;;5.86;78.43;100346.28;4973398;28;20054;-81
2023/02/13 12:12:12;;;;;;;55.50;21.80;;;;;;;5.84;78.39;100340.22;4968014;28;20042;-79
2023/02/13 12:14:42;;;;;;;34.45;15.13;;;;;;;5.81;78.25;100343.38;4968179;28;20027;-80
2023/02/13 12:17:14;;;;;;;26.17;13.82;;;;;;;5.79;78.12;100334.59;4970378;28;20053;-76
2023/02/13 12:19:45;;;;;;;26.42;12.98;;;;;;;5.76;78.13;100335.84;4969761;28;20034;-79